Time;durP1;ratioP1;P1;durP2;ratioP2;P2;SDS_P1;SDS_P2;PMS_P1;PMS_P2;Temp;Humidity;BMP_temperature;BMP_pressure;BME280_temperature;BME280_humidity;BME280_pressure;Samples;Min_cycle;Max_cycle;Signal;HPM_P1;HPM_P2
2020/12/04 00:07:46;;;;;;;7.32;3.85;;;3.50;99.90;;;;;;6719037;88;20170;-75
2020/12/04 00:17:46;;;;;;;6.10;3.45;;;3.50;99.90;;;;;;6722199;88;20429;-76
2020/12/04 00:27:47;;;;;;;7.15;4.22;;;3.50;99.90;;;;;;6730427;88;20193;-78
2020/12/04 00:37:47;;;;;;;9.75;4.12;;;3.50;99.90;;;;;;6719078;88;20261;-76
2020/12/04 00:47:48;;;;;;;7.65;4.00;;;3.50;99.90;;;;;;6732345;88;20193;-75
2020/12/04 00:57:48;;;;;;;9.70;4.85;;;3.50;99.90;;;;;;6718931;88;20194;-75
2020/12/04 01:07:49;;;;;;;8.65;3.95;;;3.40;99.90;;;;;;6718105;88;20190;-75
2020/12/04 01:17:49;;;;;;;7.28;3.95;;;3.40;99.90;;;;;;6719467;88;20194;-74
2020/12/04 01:27:50;;;;;;;8.90;4.57;;;3.40;99.90;;;;;;6719331;88;20201;-76
2020/12/04 01:37:50;;;;;;;7.05;3.12;;;3.40;99.90;;;;;;6719885;88;20207;-75
2020/12/04 01:47:52;;;;;;;9.85;5.28;;;3.40;99.90;;;;;;6717121;88;21052;-75
2020/12/04 01:57:53;;;;;;;7.95;4.30;;;3.30;99.90;;;;;;6719859;88;20222;-75
2020/12/04 02:08:15;;;;;;;8.73;4.20;;;3.30;99.90;;;;;;6720348;88;20760;-75
2020/12/04 02:18:16;;;;;;;7.25;3.58;;;3.30;99.90;;;;;;6716791;88;20206;-75
2020/12/04 02:28:17;;;;;;;7.62;4.43;;;3.30;99.90;;;;;;6719000;88;20201;-74
2020/12/04 02:38:17;;;;;;;7.62;3.87;;;3.30;99.90;;;;;;6712380;88;20229;-74
2020/12/04 02:48:18;;;;;;;7.15;4.45;;;3.30;99.90;;;;;;6721462;88;20197;-74
2020/12/04 02:58:19;;;;;;;8.65;4.28;;;3.30;99.90;;;;;;6716464;88;20173;-75
2020/12/04 03:08:19;;;;;;;7.72;4.22;;;3.30;99.90;;;;;;6722287;88;20194;-74
2020/12/04 03:18:20;;;;;;;5.45;2.92;;;3.40;99.90;;;;;;6718143;88;20206;-75
2020/12/04 03:28:21;;;;;;;5.80;3.15;;;3.50;99.90;;;;;;6726110;88;20211;-75
2020/12/04 03:38:22;;;;;;;8.15;3.42;;;3.70;99.90;;;;;;6720507;88;20804;-75
2020/12/04 03:48:22;;;;;;;6.10;3.15;;;3.80;99.90;;;;;;6726799;88;20231;-75
2020/12/04 03:58:23;;;;;;;7.43;3.85;;;4.00;99.90;;;;;;6721642;88;20206;-75
2020/12/04 04:08:23;;;;;;;3.92;2.30;;;4.00;99.90;;;;;;6722583;88;20199;-76
2020/12/04 04:18:24;;;;;;;5.62;2.65;;;4.10;99.90;;;;;;6719029;88;21022;-77
2020/12/04 04:28:24;;;;;;;6.75;3.20;;;4.10;99.90;;;;;;6721546;88;20235;-76
2020/12/04 04:38:25;;;;;;;5.35;2.70;;;4.20;99.90;;;;;;6724517;88;21101;-76
2020/12/04 04:48:31;;;;;;;5.18;2.97;;;4.30;99.90;;;;;;6725174;88;20213;-76
2020/12/04 04:58:31;;;;;;;5.97;3.63;;;4.30;99.90;;;;;;6722666;88;20186;-76
2020/12/04 05:08:32;;;;;;;3.95;2.20;;;4.30;99.90;;;;;;6718784;88;20216;-76
2020/12/04 05:18:33;;;;;;;5.25;2.55;;;4.40;99.90;;;;;;6725495;88;20201;-76
2020/12/04 05:28:35;;;;;;;6.47;3.40;;;4.40;99.90;;;;;;6718754;88;20224;-76
2020/12/04 05:38:36;;;;;;;5.07;3.03;;;4.50;99.90;;;;;;6721918;88;20248;-76
2020/12/04 05:48:36;;;;;;;3.92;2.03;;;4.60;99.90;;;;;;6726141;88;20737;-75
2020/12/04 05:58:39;;;;;;;5.03;2.60;;;4.70;99.90;;;;;;6719598;88;20307;-75
2020/12/04 06:08:40;;;;;;;5.35;2.35;;;4.80;99.90;;;;;;6731925;88;21064;-75
2020/12/04 06:18:41;;;;;;;5.20;2.72;;;4.90;99.90;;;;;;6713976;88;20201;-76
2020/12/04 06:28:42;;;;;;;5.87;2.80;;;5.10;99.90;;;;;;6715527;88;20738;-75
2020/12/04 06:38:45;;;;;;;4.00;1.98;;;5.20;99.90;;;;;;6716841;88;20251;-75
2020/12/04 06:49:09;;;;;;;4.25;2.25;;;5.40;99.90;;;;;;6716912;88;20242;-76
2020/12/04 06:59:09;;;;;;;2.47;1.35;;;5.50;99.90;;;;;;6722408;88;20193;-75
2020/12/04 07:09:10;;;;;;;3.72;2.05;;;5.60;99.90;;;;;;6720161;88;20982;-75
2020/12/04 07:19:11;;;;;;;4.22;1.60;;;5.70;99.90;;;;;;6720186;88;20185;-76
2020/12/04 07:29:11;;;;;;;4.00;2.15;;;5.70;99.90;;;;;;6725612;88;20197;-75
2020/12/04 07:39:12;;;;;;;3.12;1.77;;;5.70;99.90;;;;;;6718021;88;20182;-75
2020/12/04 07:49:16;;;;;;;6.00;2.00;;;5.70;99.90;;;;;;6721591;88;20206;-77
2020/12/04 07:59:24;;;;;;;4.00;1.85;;;5.70;99.90;;;;;;6726099;88;20212;-77
2020/12/04 08:09:24;;;;;;;3.30;1.80;;;5.80;99.90;;;;;;6729986;88;20240;-76
2020/12/04 08:19:28;;;;;;;4.65;2.00;;;5.80;99.90;;;;;;6731695;88;20650;-76
2020/12/04 08:29:28;;;;;;;3.05;1.52;;;5.90;99.90;;;;;;6739082;88;20967;-77
2020/12/04 08:39:50;;;;;;;2.92;1.67;;;5.90;99.90;;;;;;6728159;88;20205;-76
2020/12/04 08:49:50;;;;;;;4.12;2.00;;;6.00;99.90;;;;;;6724876;88;20189;-76
2020/12/04 08:59:51;;;;;;;3.30;1.67;;;6.00;99.90;;;;;;6724206;88;20197;-77
2020/12/04 09:09:51;;;;;;;3.22;1.87;;;6.20;99.90;;;;;;6737651;88;20197;-76
2020/12/04 09:19:52;;;;;;;2.80;1.65;;;6.50;99.90;;;;;;6730526;88;20205;-77
2020/12/04 09:29:53;;;;;;;3.08;1.75;;;7.10;99.90;;;;;;6728308;88;20184;-76
2020/12/04 09:40:00;;;;;;;3.17;1.52;;;7.10;99.90;;;;;;6729710;88;20247;-77
2020/12/04 09:50:01;;;;;;;3.12;1.50;;;7.20;99.90;;;;;;6725089;88;20182;-77
2020/12/04 10:00:04;;;;;;;1.58;0.85;;;7.40;99.90;;;;;;6731299;88;20668;-76
2020/12/04 10:10:05;;;;;;;2.37;1.25;;;7.30;99.90;;;;;;6722070;88;20212;-77
2020/12/04 10:20:05;;;;;;;2.17;1.20;;;7.30;99.90;;;;;;6727485;88;21200;-77
2020/12/04 10:30:06;;;;;;;1.85;0.85;;;7.30;99.90;;;;;;6741226;88;20530;-77
2020/12/04 10:40:06;;;;;;;2.33;0.95;;;7.40;99.90;;;;;;6736572;88;20238;-77
2020/12/04 10:50:08;;;;;;;2.10;0.93;;;7.70;99.90;;;;;;6725851;88;20198;-77
2020/12/04 11:00:09;;;;;;;2.47;1.10;;;8.00;99.90;;;;;;6730254;88;20752;-76
2020/12/04 11:10:09;;;;;;;1.83;0.90;;;8.40;99.90;;;;;;6740257;88;20236;-76
2020/12/04 11:20:11;;;;;;;1.67;0.80;;;8.30;99.90;;;;;;6740424;88;20165;-76
2020/12/04 11:30:14;;;;;;;1.62;0.82;;;8.10;99.90;;;;;;6742466;88;20184;-76
2020/12/04 11:40:17;;;;;;;2.25;0.98;;;8.20;99.90;;;;;;6730348;88;20199;-76
2020/12/04 11:50:18;;;;;;;2.37;1.08;;;8.20;99.90;;;;;;6719041;88;20214;-77
2020/12/04 12:00:20;;;;;;;1.60;0.82;;;8.40;99.90;;;;;;6728073;88;20324;-77
2020/12/04 12:10:20;;;;;;;3.33;0.85;;;8.40;99.90;;;;;;6717529;88;20208;-75
2020/12/04 12:20:21;;;;;;;2.10;0.90;;;8.30;99.90;;;;;;6723795;88;20188;-76
2020/12/04 12:30:22;;;;;;;2.22;0.65;;;8.80;99.90;;;;;;6717844;88;20221;-76
2020/12/04 12:40:22;;;;;;;2.15;0.73;;;8.90;99.90;;;;;;6717599;88;20226;-76
2020/12/04 12:50:23;;;;;;;2.60;0.60;;;8.90;99.90;;;;;;6722501;88;20699;-77
2020/12/04 13:00:24;;;;;;;1.80;0.70;;;8.80;99.90;;;;;;6726168;88;20271;-77
2020/12/04 13:10:24;;;;;;;2.40;0.90;;;8.80;99.90;;;;;;6727784;88;20190;-77
2020/12/04 13:20:25;;;;;;;2.28;0.70;;;8.50;99.90;;;;;;6725827;88;20225;-77
2020/12/04 13:30:26;;;;;;;2.35;1.00;;;8.40;99.90;;;;;;6721536;88;20206;-76
2020/12/04 13:40:27;;;;;;;2.15;0.93;;;8.20;99.90;;;;;;6726009;88;20188;-77
2020/12/04 13:50:28;;;;;;;2.05;0.70;;;8.10;99.90;;;;;;6725421;88;20206;-75
2020/12/04 14:00:28;;;;;;;1.98;1.05;;;8.10;99.90;;;;;;6722114;88;20329;-76
2020/12/04 14:10:29;;;;;;;1.50;0.90;;;7.80;99.90;;;;;;6737202;88;20200;-75
2020/12/04 14:20:30;;;;;;;1.73;0.80;;;7.80;99.90;;;;;;6723565;88;20213;-76
2020/12/04 14:30:30;;;;;;;2.17;0.80;;;7.70;99.90;;;;;;6727893;88;20330;-76
2020/12/04 14:40:31;;;;;;;2.45;1.20;;;7.60;99.90;;;;;;6713104;88;20236;-76
2020/12/04 14:50:31;;;;;;;2.58;0.90;;;7.60;99.90;;;;;;6726229;88;21049;-75
2020/12/04 15:00:32;;;;;;;2.90;1.50;;;7.60;99.90;;;;;;6719992;88;20995;-76
2020/12/04 15:10:33;;;;;;;3.35;1.20;;;7.40;99.90;;;;;;6718905;88;20363;-76
2020/12/04 15:20:33;;;;;;;4.57;1.27;;;7.40;99.90;;;;;;6721013;88;20210;-77
2020/12/04 15:30:34;;;;;;;4.25;2.40;;;7.40;99.90;;;;;;6726923;88;20701;-76
2020/12/04 15:40:35;;;;;;;4.15;2.00;;;7.40;99.90;;;;;;6724180;88;20195;-77
2020/12/04 15:50:36;;;;;;;2.90;1.67;;;7.40;99.90;;;;;;6726084;88;20277;-75
2020/12/04 16:00:38;;;;;;;5.43;2.00;;;7.50;99.90;;;;;;6731891;88;20368;-76
2020/12/04 16:10:39;;;;;;;7.72;4.37;;;7.50;99.90;;;;;;6730793;88;20174;-77
2020/12/04 16:20:39;;;;;;;3.00;1.80;;;7.60;99.90;;;;;;6725399;88;20252;-76
2020/12/04 16:30:40;;;;;;;1.90;1.10;;;7.50;99.90;;;;;;6737323;88;20173;-76
2020/12/04 16:40:40;;;;;;;2.00;0.90;;;7.40;99.90;;;;;;6731083;88;20303;-76
2020/12/04 16:50:41;;;;;;;3.67;1.60;;;7.30;99.90;;;;;;6739709;88;20201;-77
2020/12/04 17:00:42;;;;;;;2.58;1.10;;;7.30;99.90;;;;;;6717935;88;20363;-77
2020/12/04 17:10:42;;;;;;;2.60;1.27;;;7.40;99.90;;;;;;6720626;88;20186;-77
2020/12/04 17:20:44;;;;;;;2.47;1.23;;;7.10;99.90;;;;;;6715033;88;20828;-77
2020/12/04 17:30:44;;;;;;;3.58;1.90;;;7.00;99.90;;;;;;6715805;88;20576;-76
2020/12/04 17:40:45;;;;;;;3.37;1.40;;;7.20;99.90;;;;;;6714777;88;20604;-76
2020/12/04 17:50:46;;;;;;;5.95;2.80;;;7.00;99.90;;;;;;6714924;88;20206;-74
2020/12/04 18:00:46;;;;;;;6.45;3.00;;;7.00;99.90;;;;;;6716978;88;20214;-74
2020/12/04 18:10:47;;;;;;;4.93;3.03;;;6.80;99.90;;;;;;6714822;88;20213;-76
2020/12/04 18:20:47;;;;;;;4.65;2.50;;;6.70;99.90;;;;;;6714719;88;20224;-77
2020/12/04 18:30:48;;;;;;;7.90;3.35;;;6.60;99.90;;;;;;6714454;88;20716;-75
2020/12/04 18:40:48;;;;;;;6.18;2.90;;;6.60;99.90;;;;;;6713708;88;20181;-74
2020/12/04 18:50:49;;;;;;;4.60;2.40;;;6.40;99.90;;;;;;6716800;88;20230;-76
2020/12/04 19:00:49;;;;;;;4.75;2.70;;;6.20;99.90;;;;;;6716943;88;20190;-76
2020/12/04 19:10:54;;;;;;;6.87;4.12;;;6.20;99.90;;;;;;6720210;88;20613;-74
2020/12/04 19:20:55;;;;;;;5.78;3.20;;;5.90;99.90;;;;;;6713819;88;20317;-76
2020/12/04 19:30:56;;;;;;;6.85;3.12;;;5.70;99.90;;;;;;6715936;88;20208;-77
2020/12/04 19:40:56;;;;;;;7.22;3.37;;;5.80;99.90;;;;;;6711665;88;20750;-77
2020/12/04 19:50:57;;;;;;;9.10;3.97;;;5.80;99.90;;;;;;6717255;88;20234;-76
2020/12/04 20:00:58;;;;;;;7.93;4.37;;;5.90;99.90;;;;;;6721172;88;20270;-77
2020/12/04 20:10:59;;;;;;;8.30;4.60;;;5.70;99.90;;;;;;6723831;88;20309;-75
2020/12/04 20:20:59;;;;;;;9.27;5.40;;;5.50;99.90;;;;;;6715116;88;20190;-77
2020/12/04 20:31:00;;;;;;;11.50;5.95;;;5.30;99.90;;;;;;6712414;88;20712;-77
2020/12/04 20:41:01;;;;;;;9.23;5.53;;;5.40;99.90;;;;;;6717753;88;20204;-77
2020/12/04 20:51:01;;;;;;;11.40;6.18;;;5.10;99.90;;;;;;6720403;88;20195;-76
2020/12/04 21:01:03;;;;;;;8.60;5.18;;;4.90;99.90;;;;;;6719620;88;21110;-77
2020/12/04 21:11:03;;;;;;;11.45;5.95;;;4.90;99.90;;;;;;6720092;88;20719;-76
2020/12/04 21:21:04;;;;;;;10.02;5.57;;;4.70;99.90;;;;;;6724806;88;20275;-76
2020/12/04 21:31:05;;;;;;;8.57;5.00;;;4.60;99.90;;;;;;6727496;88;20193;-77
2020/12/04 21:41:05;;;;;;;7.75;4.03;;;4.30;99.90;;;;;;6721071;88;20216;-77
2020/12/04 21:51:06;;;;;;;13.30;6.32;;;4.30;99.90;;;;;;6721089;88;20280;-77
2020/12/04 22:01:07;;;;;;;12.77;6.53;;;4.50;99.90;;;;;;6725734;88;21048;-78
2020/12/04 22:11:07;;;;;;;12.63;6.40;;;4.20;99.90;;;;;;6728261;88;20276;-78
2020/12/04 22:21:08;;;;;;;23.33;9.90;;;4.00;99.90;;;;;;6726343;88;20211;-77
2020/12/04 22:31:19;;;;;;;15.85;5.93;;;3.90;99.90;;;;;;6730751;88;20193;-76
2020/12/04 22:41:21;;;;;;;9.32;4.78;;;4.10;99.90;;;;;;6719594;88;20186;-77
2020/12/04 22:51:22;;;;;;;9.65;5.53;;;4.10;99.90;;;;;;6719114;88;20317;-75
2020/12/04 23:01:27;;;;;;;10.60;4.93;;;3.80;99.90;;;;;;6719060;88;20654;-75
2020/12/04 23:11:27;;;;;;;8.98;5.28;;;3.70;99.90;;;;;;6719126;88;20218;-75
2020/12/04 23:21:28;;;;;;;7.50;4.30;;;3.90;99.90;;;;;;6719606;88;20387;-75
2020/12/04 23:31:28;;;;;;;10.60;5.07;;;3.70;99.90;;;;;;6722738;88;20725;-75
2020/12/04 23:41:29;;;;;;;9.75;6.07;;;3.70;99.90;;;;;;6720912;88;20519;-76
2020/12/04 23:51:29;;;;;;;10.07;5.22;;;3.80;99.90;;;;;;6725862;88;20194;-76
